createdAt,value
2023-08-29T00:01:33.214Z,6.28
2023-08-29T00:04:49.988Z,6.85
2023-08-29T00:08:07.297Z,6.65
2023-08-29T00:11:25.488Z,7.70
2023-08-29T00:14:42.328Z,7.60
2023-08-29T00:17:58.795Z,7.28
2023-08-29T00:21:15.507Z,7.20
2023-08-29T00:24:32.078Z,6.63
2023-08-29T00:27:48.642Z,7.65
2023-08-29T00:31:05.305Z,8.45
2023-08-29T00:34:21.803Z,7.63
2023-08-29T00:37:38.406Z,7.90
2023-08-29T00:40:55.284Z,8.88
2023-08-29T00:44:12.546Z,9.33
2023-08-29T00:47:29.640Z,8.55
2023-08-29T00:50:47.146Z,9.40
2023-08-29T00:54:04.181Z,10.25
2023-08-29T00:57:21.024Z,9.80
2023-08-29T01:00:39.227Z,10.38
2023-08-29T01:03:56.063Z,9.70
2023-08-29T01:07:14.245Z,10.90
2023-08-29T01:10:36.089Z,11.25
2023-08-29T01:13:58.048Z,11.18
2023-08-29T01:17:20.875Z,11.35
2023-08-29T01:20:41.777Z,10.88
2023-08-29T01:24:02.546Z,13.60
2023-08-29T01:27:21.531Z,11.95
2023-08-29T01:30:39.200Z,15.25
2023-08-29T01:33:56.459Z,16.33
2023-08-29T01:37:13.164Z,16.95
2023-08-29T01:40:30.063Z,19.93
2023-08-29T01:43:46.607Z,18.00
2023-08-29T01:47:03.414Z,18.80
2023-08-29T01:50:20.779Z,18.50
2023-08-29T01:53:39.512Z,18.23
2023-08-29T01:56:57.770Z,18.68
2023-08-29T02:00:18.254Z,17.53
2023-08-29T02:03:34.235Z,17.00
2023-08-29T02:06:51.226Z,15.68
2023-08-29T02:10:08.154Z,16.30
2023-08-29T02:13:24.854Z,15.53
2023-08-29T02:16:41.606Z,14.45
2023-08-29T02:20:00.059Z,16.30
2023-08-29T02:23:16.978Z,13.93
2023-08-29T02:26:33.655Z,12.73
2023-08-29T02:29:50.240Z,10.23
2023-08-29T02:33:07.340Z,9.23
2023-08-29T02:36:25.182Z,6.95
2023-08-29T02:39:43.041Z,5.55
2023-08-29T02:42:59.932Z,5.18
2023-08-29T02:46:18.510Z,5.28
2023-08-29T02:49:37.589Z,5.03
2023-08-29T02:52:54.596Z,5.08
2023-08-29T02:56:11.800Z,5.35
2023-08-29T02:59:28.612Z,5.33
2023-08-29T03:02:46.026Z,6.08
2023-08-29T03:06:07.268Z,6.95
2023-08-29T03:09:26.672Z,7.40
2023-08-29T03:12:44.851Z,7.63
2023-08-29T03:16:11.065Z,8.60
2023-08-29T03:19:29.812Z,8.05
2023-08-29T03:26:29.283Z,9.30
2023-08-29T03:29:50.223Z,8.15
2023-08-29T03:33:07.476Z,7.83
2023-08-29T03:36:26.657Z,7.43
2023-08-29T03:39:44.136Z,7.15
2023-08-29T03:43:01.294Z,7.43
2023-08-29T03:46:19.090Z,7.25
2023-08-29T03:49:37.567Z,6.85
2023-08-29T03:53:32.592Z,7.40
2023-08-29T03:56:50.881Z,7.38
2023-08-29T04:00:11.782Z,7.60
2023-08-29T04:03:32.975Z,6.90
2023-08-29T04:06:51.238Z,7.28
2023-08-29T04:10:08.349Z,6.78
2023-08-29T04:13:26.036Z,6.20
2023-08-29T04:16:51.090Z,5.90
2023-08-29T04:20:10.132Z,6.95
2023-08-29T04:23:27.017Z,6.25
2023-08-29T04:26:44.242Z,5.30
2023-08-29T04:30:01.119Z,5.88
2023-08-29T04:33:18.161Z,6.23
2023-08-29T04:36:35.947Z,5.43
2023-08-29T04:39:52.916Z,5.35
2023-08-29T04:43:10.251Z,5.45
2023-08-29T04:46:29.828Z,5.20
2023-08-29T04:49:46.566Z,4.88
2023-08-29T04:53:22.539Z,5.13
2023-08-29T04:56:51.306Z,4.35
2023-08-29T05:00:07.372Z,4.50
2023-08-29T05:03:28.124Z,4.30
2023-08-29T05:06:46.118Z,4.10
2023-08-29T05:10:03.342Z,4.30
2023-08-29T05:13:20.253Z,3.53
2023-08-29T05:16:38.292Z,3.90
2023-08-29T05:19:56.168Z,4.08
2023-08-29T05:23:15.481Z,3.70
2023-08-29T05:26:34.486Z,3.70
2023-08-29T05:29:51.862Z,4.40
2023-08-29T05:33:09.330Z,4.23
2023-08-29T05:36:26.373Z,3.93
2023-08-29T05:39:43.336Z,4.40
2023-08-29T05:43:00.238Z,4.20
2023-08-29T05:46:17.281Z,4.70
2023-08-29T05:49:34.172Z,4.25
2023-08-29T05:52:50.955Z,5.15
2023-08-29T05:56:07.752Z,4.95
2023-08-29T05:59:27.055Z,4.73
2023-08-29T06:02:44.270Z,5.73
2023-08-29T06:06:03.878Z,5.38
2023-08-29T06:09:21.702Z,4.10
2023-08-29T06:12:38.499Z,4.45
2023-08-29T06:15:55.366Z,4.63
2023-08-29T06:19:12.468Z,4.30
2023-08-29T06:22:29.573Z,3.58
2023-08-29T06:25:47.022Z,3.30
2023-08-29T06:29:03.890Z,4.23
2023-08-29T06:32:20.684Z,3.53
2023-08-29T06:35:38.881Z,2.90
2023-08-29T06:38:57.156Z,3.75
2023-08-29T06:42:24.300Z,2.98
2023-08-29T06:46:03.847Z,2.88
2023-08-29T06:49:35.961Z,2.98
2023-08-29T06:52:53.852Z,2.25
2023-08-29T06:56:10.806Z,2.55
2023-08-29T06:59:27.583Z,2.93
2023-08-29T07:02:44.518Z,2.18
2023-08-29T07:06:08.825Z,3.00
2023-08-29T07:09:27.374Z,3.30
2023-08-29T07:12:44.430Z,2.85
2023-08-29T07:16:01.042Z,2.75
2023-08-29T07:19:18.059Z,2.60
2023-08-29T07:22:34.621Z,3.00
2023-08-29T07:25:53.297Z,2.63
2023-08-29T07:32:23.814Z,2.43
2023-08-29T07:35:40.387Z,2.58
2023-08-29T07:38:57.083Z,2.38
2023-08-29T07:42:14.141Z,2.30
2023-08-29T07:45:30.922Z,2.08
2023-08-29T07:48:47.437Z,2.05
2023-08-29T07:52:04.697Z,2.20
2023-08-29T07:55:22.642Z,1.98
2023-08-29T07:58:39.188Z,2.38
2023-08-29T08:01:56.430Z,2.00
2023-08-29T08:05:15.143Z,2.23
2023-08-29T08:08:31.891Z,1.95
2023-08-29T08:11:48.533Z,2.20
2023-08-29T08:15:06.508Z,2.08
2023-08-29T08:18:23.835Z,2.65
2023-08-29T08:21:40.459Z,1.95
2023-08-29T08:24:57.005Z,2.08
2023-08-29T08:28:15.691Z,2.40
2023-08-29T08:31:32.421Z,2.08
2023-08-29T08:34:49.043Z,2.13
2023-08-29T08:38:07.500Z,3.15
2023-08-29T08:41:26.923Z,7.88
2023-08-29T08:44:44.644Z,3.20
2023-08-29T08:48:02.078Z,2.18
2023-08-29T08:51:23.272Z,2.08
2023-08-29T08:54:40.229Z,1.80
2023-08-29T08:57:57.165Z,1.98
2023-08-29T09:01:13.959Z,2.20
2023-08-29T09:04:30.737Z,1.68
2023-08-29T09:07:49.852Z,1.93
2023-08-29T09:11:10.831Z,1.78
2023-08-29T09:14:27.578Z,1.90
2023-08-29T09:17:44.145Z,2.00
2023-08-29T09:21:02.826Z,1.70
2023-08-29T09:24:22.104Z,1.78
2023-08-29T09:27:41.443Z,2.10
2023-08-29T09:30:58.196Z,2.15
2023-08-29T09:34:14.985Z,1.53
2023-08-29T09:37:31.638Z,1.40
2023-08-29T09:40:58.291Z,1.80
2023-08-29T09:44:21.555Z,1.70
2023-08-29T09:47:41.721Z,18.13
2023-08-29T09:50:59.883Z,3.78
2023-08-29T09:54:19.983Z,2.33
2023-08-29T09:57:39.212Z,2.25
2023-08-29T10:00:58.351Z,2.80
2023-08-29T10:04:25.642Z,2.25
2023-08-29T10:07:46.854Z,2.30
2023-08-29T10:11:04.929Z,2.30
2023-08-29T10:14:22.787Z,2.20
2023-08-29T10:17:41.590Z,2.40
2023-08-29T10:21:01.169Z,2.45
2023-08-29T10:24:20.171Z,2.35
2023-08-29T10:27:36.857Z,2.38
2023-08-29T10:30:56.968Z,2.55
2023-08-29T10:34:14.042Z,2.43
2023-08-29T10:37:31.813Z,2.43
2023-08-29T10:40:48.609Z,2.33
2023-08-29T10:44:45.586Z,2.15
2023-08-29T10:48:04.816Z,2.47
2023-08-29T10:51:24.569Z,2.43
2023-08-29T10:54:41.212Z,2.28
2023-08-29T10:58:00.563Z,2.68
2023-08-29T11:01:32.952Z,2.00
2023-08-29T11:11:45.175Z,2.00
2023-08-29T11:15:02.864Z,2.58
2023-08-29T11:18:37.533Z,2.73
2023-08-29T11:21:56.258Z,2.98
2023-08-29T11:25:15.232Z,3.08
2023-08-29T11:28:31.941Z,2.50
2023-08-29T11:31:52.470Z,2.68
2023-08-29T11:35:09.296Z,2.78
2023-08-29T11:38:25.939Z,7.48
2023-08-29T11:42:13.922Z,5.95
2023-08-29T11:45:28.131Z,4.03
2023-08-29T11:48:23.834Z,4.10
2023-08-29T11:51:41.088Z,2.95
2023-08-29T11:54:59.470Z,3.50
2023-08-29T12:01:31.225Z,3.43
2023-08-29T12:04:52.757Z,2.80
2023-08-29T12:08:09.344Z,3.43
2023-08-29T12:11:26.863Z,3.93
2023-08-29T12:15:03.859Z,3.30
2023-08-29T12:18:31.240Z,3.83
2023-08-29T12:21:47.917Z,3.50
2023-08-29T12:25:05.246Z,4.05
2023-08-29T12:28:21.801Z,3.88
2023-08-29T12:31:38.330Z,3.88
2023-08-29T12:34:57.012Z,3.95
2023-08-29T12:38:14.781Z,3.83
2023-08-29T12:41:31.812Z,4.17
2023-08-29T12:44:48.544Z,4.60
2023-08-29T12:48:05.817Z,3.83
2023-08-29T12:51:22.738Z,3.88
2023-08-29T12:54:40.506Z,4.55
2023-08-29T12:57:57.206Z,4.23
2023-08-29T13:01:15.395Z,4.98
2023-08-29T13:12:43.760Z,4.18
2023-08-29T13:38:51.830Z,4.50
2023-08-29T13:42:10.303Z,4.10
2023-08-29T13:48:42.447Z,4.40
2023-08-29T13:52:01.600Z,3.65
2023-08-29T13:55:18.751Z,4.68
2023-08-29T13:58:35.385Z,4.33
2023-08-29T14:01:51.983Z,4.50
2023-08-29T14:05:08.821Z,5.33
2023-08-29T14:08:25.406Z,5.13
2023-08-29T14:11:41.922Z,5.38
2023-08-29T14:14:58.465Z,5.18
2023-08-29T14:18:15.552Z,5.08
2023-08-29T14:21:32.258Z,4.53
2023-08-29T14:24:49.056Z,6.90
2023-08-29T14:28:08.767Z,6.88
2023-08-29T14:31:29.433Z,5.35
2023-08-29T14:34:46.040Z,5.83
2023-08-29T14:38:03.054Z,5.73
2023-08-29T14:41:20.872Z,5.10
2023-08-29T14:44:40.910Z,4.93
2023-08-29T14:48:00.609Z,5.18
2023-08-29T14:51:17.860Z,4.90
2023-08-29T14:54:34.537Z,5.45
2023-08-29T14:57:51.162Z,5.73
2023-08-29T15:01:09.234Z,5.70
2023-08-29T15:04:28.348Z,4.98
2023-08-29T15:07:45.213Z,5.53
2023-08-29T15:11:04.485Z,4.93
2023-08-29T15:14:21.080Z,6.53
2023-08-29T15:17:37.978Z,5.63
2023-08-29T15:20:55.461Z,5.63
2023-08-29T15:24:12.824Z,5.95
2023-08-29T15:27:29.309Z,5.73
2023-08-29T15:30:46.108Z,6.30
2023-08-29T15:34:02.896Z,7.35
2023-08-29T15:37:19.503Z,6.90
2023-08-29T15:40:36.133Z,7.35
2023-08-29T15:43:53.192Z,6.85
2023-08-29T15:47:10.197Z,6.28
2023-08-29T15:50:26.958Z,7.73
2023-08-29T15:53:43.594Z,7.30
2023-08-29T15:57:01.799Z,6.33
2023-08-29T16:00:21.976Z,7.00
2023-08-29T16:03:38.546Z,6.30
2023-08-29T16:06:55.565Z,7.90
2023-08-29T16:10:15.588Z,7.75
2023-08-29T16:13:32.746Z,7.20
2023-08-29T16:16:52.181Z,6.60
2023-08-29T16:20:10.478Z,7.20
2023-08-29T16:23:27.165Z,8.63
2023-08-29T16:26:43.762Z,9.50
2023-08-29T16:30:04.267Z,9.80
2023-08-29T16:33:20.818Z,8.73
2023-08-29T16:36:37.492Z,8.43
2023-08-29T16:39:54.125Z,9.58
2023-08-29T16:43:11.034Z,9.03
2023-08-29T16:46:27.757Z,8.38
2023-08-29T16:49:44.721Z,8.83
2023-08-29T16:53:06.221Z,10.10
2023-08-29T16:56:22.857Z,9.78
2023-08-29T16:59:56.004Z,9.35
2023-08-29T17:06:47.477Z,10.33
2023-08-29T17:10:05.628Z,10.15
2023-08-29T17:13:22.301Z,10.60
2023-08-29T17:16:42.498Z,10.05
2023-08-29T17:19:59.886Z,9.80
2023-08-29T17:23:16.853Z,10.45
2023-08-29T17:26:33.345Z,10.90
2023-08-29T17:29:50.016Z,10.48
2023-08-29T17:33:06.810Z,9.63
2023-08-29T17:36:23.383Z,11.05
2023-08-29T17:39:40.092Z,10.90
2023-08-29T17:43:03.888Z,10.78
2023-08-29T17:46:19.398Z,9.78
2023-08-29T17:49:36.122Z,9.73
2023-08-29T17:52:52.820Z,9.70
2023-08-29T18:00:21.084Z,9.80
2023-08-29T18:03:37.955Z,9.65
2023-08-29T18:06:54.690Z,9.83
2023-08-29T18:10:48.392Z,9.70
2023-08-29T18:18:56.570Z,8.38
2023-08-29T18:22:14.311Z,13.80
2023-08-29T18:25:31.921Z,14.43
2023-08-29T18:28:48.595Z,15.90
2023-08-29T18:32:05.356Z,16.13
2023-08-29T18:35:22.592Z,15.20
2023-08-29T18:38:39.496Z,17.00
2023-08-29T18:41:56.195Z,17.55
2023-08-29T18:45:14.337Z,16.48
2023-08-29T18:48:31.573Z,18.13
2023-08-29T18:51:48.130Z,16.78
2023-08-29T18:55:05.366Z,16.60
2023-08-29T18:58:22.061Z,15.03
2023-08-29T19:01:39.120Z,15.35
2023-08-29T19:04:55.787Z,13.90
2023-08-29T19:08:13.065Z,12.65
2023-08-29T19:11:29.644Z,12.83
2023-08-29T19:14:48.279Z,12.70
2023-08-29T19:18:05.331Z,14.93
2023-08-29T19:21:27.076Z,13.95
2023-08-29T19:28:29.125Z,13.55
2023-08-29T19:31:52.878Z,14.40
2023-08-29T19:35:52.624Z,13.48
2023-08-29T19:39:21.454Z,15.88
2023-08-29T19:42:43.596Z,14.30
2023-08-29T19:46:10.821Z,15.00
2023-08-29T19:49:45.476Z,15.55
2023-08-29T19:53:05.370Z,14.43
2023-08-29T19:56:25.581Z,15.85
2023-08-29T19:59:42.350Z,14.05
2023-08-29T20:02:59.018Z,14.58
2023-08-29T20:06:18.032Z,14.28
2023-08-29T20:09:40.598Z,13.45
2023-08-29T20:12:57.546Z,13.20
2023-08-29T20:16:16.067Z,15.28
2023-08-29T20:22:48.534Z,11.65
2023-08-29T20:26:09.077Z,10.30
2023-08-29T20:29:26.183Z,10.38
2023-08-29T20:32:42.962Z,9.13
2023-08-29T20:35:59.612Z,9.48
2023-08-29T20:39:16.650Z,9.33
2023-08-29T20:42:33.279Z,9.75
2023-08-29T20:45:51.252Z,9.48
2023-08-29T20:49:08.076Z,10.55
2023-08-29T20:52:26.789Z,9.43
2023-08-29T20:55:45.783Z,9.65
2023-08-29T20:59:05.409Z,9.23
2023-08-29T21:02:35.272Z,10.80
2023-08-29T21:05:59.177Z,10.03
2023-08-29T21:09:16.383Z,9.73
2023-08-29T21:12:35.652Z,9.20
2023-08-29T21:15:54.883Z,9.83
2023-08-29T21:19:11.658Z,9.35
2023-08-29T21:22:28.399Z,10.35
2023-08-29T21:25:46.766Z,10.10
2023-08-29T21:29:03.619Z,9.60
2023-08-29T21:32:20.260Z,11.03
2023-08-29T21:41:55.447Z,10.45
2023-08-29T21:45:13.327Z,10.83
2023-08-29T21:48:32.072Z,10.60
2023-08-29T21:51:48.608Z,9.60
2023-08-29T21:55:05.226Z,9.70
2023-08-29T21:58:21.953Z,10.23
2023-08-29T22:01:38.653Z,9.53
2023-08-29T22:04:57.278Z,10.23
2023-08-29T22:08:14.534Z,9.85
2023-08-29T22:11:31.164Z,10.10
2023-08-29T22:14:47.693Z,11.50
2023-08-29T22:18:05.433Z,14.48
2023-08-29T22:21:21.983Z,17.83
2023-08-29T22:24:38.533Z,20.63
2023-08-29T22:27:55.201Z,20.58
2023-08-29T22:31:13.292Z,20.43
2023-08-29T22:34:29.993Z,23.18
2023-08-29T22:37:46.662Z,22.95
2023-08-29T22:41:24.870Z,25.80
2023-08-29T22:44:30.435Z,28.13
2023-08-29T22:47:47.392Z,26.70
2023-08-29T22:51:03.987Z,26.33
2023-08-29T22:54:20.646Z,25.83
2023-08-29T22:57:37.180Z,26.70
2023-08-29T23:00:54.047Z,26.00
2023-08-29T23:04:11.121Z,25.65
2023-08-29T23:07:29.889Z,27.13
2023-08-29T23:14:01.874Z,25.23
2023-08-29T23:17:20.322Z,26.28
2023-08-29T23:20:37.028Z,25.20
2023-08-29T23:23:55.242Z,25.03
2023-08-29T23:27:12.024Z,22.88
2023-08-29T23:30:29.937Z,23.28
2023-08-29T23:33:56.526Z,23.37
2023-08-29T23:37:13.347Z,21.33
2023-08-29T23:40:29.957Z,20.55
2023-08-29T23:43:46.615Z,18.03
2023-08-29T23:47:03.257Z,17.08
2023-08-29T23:50:20.774Z,19.30
2023-08-29T23:53:37.417Z,18.35
2023-08-29T23:56:54.171Z,17.73
